Time;durP1;ratioP1;P1;durP2;ratioP2;P2;SDS_P1;SDS_P2;PMS_P1;PMS_P2;Temp;Humidity;BMP_temperature;BMP_pressure;BME280_temperature;BME280_humidity;BME280_pressure;Samples;Min_cycle;Max_cycle;Signal;HPM_P1;HPM_P2
2023/11/12 00:00:41;;;;;;;4.50;2.77;;;5.30;99.90;;;;;;4214428;28;20478;-79
2023/11/12 00:02:42;;;;;;;6.43;2.93;;;5.30;99.90;;;;;;4217701;28;20446;-76
2023/11/12 00:04:44;;;;;;;6.83;2.73;;;5.30;99.90;;;;;;4219769;28;20474;-77
2023/11/12 00:06:47;;;;;;;4.53;2.83;;;5.40;99.90;;;;;;4218650;28;20516;-76
2023/11/12 00:08:49;;;;;;;4.13;2.80;;;5.30;99.90;;;;;;4215594;28;20507;-77
2023/11/12 00:10:53;;;;;;;9.83;3.17;;;5.30;99.90;;;;;;4216895;28;20450;-76
2023/11/12 00:12:55;;;;;;;12.97;3.30;;;5.30;99.90;;;;;;4218445;28;20552;-77
2023/11/12 00:14:57;;;;;;;5.53;2.70;;;5.30;99.90;;;;;;4223599;28;20476;-76
2023/11/12 00:17:02;;;;;;;7.43;2.90;;;5.30;99.90;;;;;;4212489;28;20966;-77
2023/11/12 00:19:04;;;;;;;8.03;2.80;;;5.30;99.90;;;;;;4217391;28;20446;-79
2023/11/12 00:21:06;;;;;;;4.03;2.77;;;5.30;99.90;;;;;;4214580;28;20516;-76
2023/11/12 00:23:08;;;;;;;6.47;2.80;;;5.30;99.90;;;;;;4213959;28;20476;-77
2023/11/12 00:25:12;;;;;;;9.93;3.17;;;5.30;99.90;;;;;;4218763;28;20530;-77
2023/11/12 00:27:15;;;;;;;4.80;2.87;;;5.30;99.90;;;;;;4220121;28;20536;-76
2023/11/12 00:29:17;;;;;;;6.57;3.07;;;5.30;99.90;;;;;;4213436;28;20857;-76
2023/11/12 00:31:21;;;;;;;4.60;2.60;;;5.30;99.90;;;;;;4217489;28;20445;-77
2023/11/12 00:33:27;;;;;;;7.23;3.13;;;5.30;99.90;;;;;;4220392;28;20518;-76
2023/11/12 00:35:28;;;;;;;6.37;2.90;;;5.30;99.90;;;;;;4214098;28;20875;-77
2023/11/12 00:37:30;;;;;;;6.83;3.17;;;5.40;99.90;;;;;;4217879;28;20484;-77
2023/11/12 00:39:32;;;;;;;8.53;3.07;;;5.40;99.90;;;;;;4221935;28;20458;-76
2023/11/12 00:41:36;;;;;;;8.07;3.20;;;4.90;99.90;;;;;;4214848;28;20478;-78
2023/11/12 00:43:40;;;;;;;6.57;2.97;;;5.40;99.90;;;;;;4213538;28;21017;-76
2023/11/12 00:45:42;;;;;;;6.40;3.03;;;5.40;99.90;;;;;;4214234;28;20490;-76
2023/11/12 00:47:44;;;;;;;4.83;2.87;;;5.40;99.90;;;;;;4216069;28;20951;-76
2023/11/12 00:49:48;;;;;;;4.40;2.80;;;5.40;99.90;;;;;;4220390;28;20530;-76
2023/11/12 00:51:52;;;;;;;6.70;3.00;;;5.60;99.90;;;;;;4220852;28;20990;-76
2023/11/12 00:53:54;;;;;;;4.63;3.37;;;5.40;99.90;;;;;;4218045;28;20455;-79
2023/11/12 00:55:59;;;;;;;5.97;3.67;;;5.40;99.90;;;;;;4219133;28;20844;-77
2023/11/12 00:58:01;;;;;;;7.23;3.27;;;5.40;99.90;;;;;;4218055;28;20470;-78
2023/11/12 01:00:03;;;;;;;4.90;3.10;;;5.80;99.90;;;;;;4216128;28;20528;-76
2023/11/12 01:02:05;;;;;;;6.13;3.37;;;5.40;99.90;;;;;;4218084;28;20479;-77
2023/11/12 01:04:06;;;;;;;7.90;4.03;;;5.40;99.90;;;;;;4218868;28;20508;-78
2023/11/12 01:06:09;;;;;;;4.77;3.47;;;5.40;99.90;;;;;;4218112;28;20833;-76
2023/11/12 01:08:11;;;;;;;6.83;3.20;;;5.40;99.90;;;;;;4215372;28;20203;-78
2023/11/12 01:10:16;;;;;;;8.30;3.60;;;5.30;99.90;;;;;;4220412;28;20466;-77
2023/11/12 01:12:19;;;;;;;4.70;3.20;;;5.30;99.90;;;;;;4221270;28;20527;-76
2023/11/12 01:14:21;;;;;;;6.47;3.77;;;5.30;99.90;;;;;;4219178;28;21087;-76
2023/11/12 01:16:23;;;;;;;5.13;3.57;;;5.30;99.90;;;;;;4217222;28;20475;-77
2023/11/12 01:18:26;;;;;;;6.43;3.70;;;5.30;99.90;;;;;;4216142;28;20484;-76
2023/11/12 01:20:28;;;;;;;7.33;3.73;;;5.30;99.90;;;;;;4215632;28;20530;-78
2023/11/12 01:22:31;;;;;;;4.40;3.30;;;5.30;99.90;;;;;;4223002;28;20520;-76
2023/11/12 01:24:34;;;;;;;7.40;3.50;;;5.30;99.90;;;;;;4218666;28;20446;-75
2023/11/12 01:26:38;;;;;;;6.73;3.10;;;5.20;99.90;;;;;;4218630;28;20465;-76
2023/11/12 01:28:40;;;;;;;6.87;3.50;;;5.30;99.90;;;;;;4218756;28;20470;-76
2023/11/12 01:30:42;;;;;;;4.50;3.10;;;5.30;99.90;;;;;;4225397;28;20498;-76
2023/11/12 01:32:44;;;;;;;5.67;3.10;;;5.30;99.90;;;;;;4220823;27;20475;-76
2023/11/12 01:34:46;;;;;;;7.97;3.33;;;5.30;99.90;;;;;;4218681;28;20632;-76
2023/11/12 01:36:48;;;;;;;6.87;3.77;;;5.30;99.90;;;;;;4221584;28;20456;-77
2023/11/12 01:38:52;;;;;;;4.23;3.10;;;5.30;99.90;;;;;;4223117;28;20480;-76
2023/11/12 01:40:54;;;;;;;5.77;3.33;;;5.30;99.90;;;;;;4221498;28;20477;-76
2023/11/12 01:42:56;;;;;;;5.30;2.90;;;5.30;99.90;;;;;;4220367;28;20796;-76
2023/11/12 01:44:59;;;;;;;7.37;3.23;;;5.30;99.90;;;;;;4217883;28;20975;-77
2023/11/12 01:47:01;;;;;;;7.27;3.43;;;5.40;99.90;;;;;;4220410;28;20457;-75
2023/11/12 01:49:04;;;;;;;6.00;3.67;;;5.30;99.90;;;;;;4227546;28;20441;-76
2023/11/12 01:51:07;;;;;;;7.47;3.50;;;5.30;99.90;;;;;;4223498;28;20451;-77
2023/11/12 01:53:13;;;;;;;7.97;3.33;;;5.30;99.90;;;;;;4221492;28;20462;-76
2023/11/12 01:55:19;;;;;;;6.20;3.40;;;5.30;99.90;;;;;;4222072;28;20473;-77
2023/11/12 01:57:22;;;;;;;7.80;3.47;;;5.80;99.90;;;;;;4218526;28;20453;-76
2023/11/12 01:59:24;;;;;;;7.37;3.73;;;5.30;99.90;;;;;;4220512;28;20470;-76
2023/11/12 02:01:27;;;;;;;6.93;3.30;;;5.90;99.90;;;;;;4225934;28;20484;-77
2023/11/12 02:03:30;;;;;;;6.60;3.20;;;5.30;99.90;;;;;;4225225;28;20467;-76
2023/11/12 02:05:34;;;;;;;7.23;3.37;;;5.30;99.90;;;;;;4228525;28;20470;-76
2023/11/12 02:07:37;;;;;;;5.47;3.13;;;5.30;99.90;;;;;;4225078;28;20481;-75
2023/11/12 02:09:38;;;;;;;5.33;3.50;;;5.30;99.90;;;;;;4230880;28;20449;-76
2023/11/12 02:11:44;;;;;;;5.77;3.10;;;5.40;99.90;;;;;;4230066;27;20441;-77
2023/11/12 02:13:46;;;;;;;7.40;3.57;;;5.40;99.90;;;;;;4221585;28;20553;-76
2023/11/12 02:15:47;;;;;;;6.17;3.50;;;5.30;99.90;;;;;;4224897;28;20471;-76
2023/11/12 02:17:49;;;;;;;4.97;3.23;;;5.30;99.90;;;;;;4230747;28;20883;-77
2023/11/12 02:19:50;;;;;;;6.83;3.70;;;5.30;99.90;;;;;;4228863;28;20460;-75
2023/11/12 02:21:53;;;;;;;5.33;3.50;;;5.30;99.90;;;;;;4223917;28;20471;-77
2023/11/12 02:23:56;;;;;;;5.33;3.60;;;5.30;99.90;;;;;;4223283;28;20509;-77
2023/11/12 02:25:59;;;;;;;8.87;3.97;;;5.30;99.90;;;;;;4216713;28;20899;-77
2023/11/12 02:28:01;;;;;;;6.93;3.97;;;5.30;99.90;;;;;;4217345;28;20469;-77
2023/11/12 02:30:03;;;;;;;6.20;3.60;;;5.30;99.90;;;;;;4227560;28;20450;-77
2023/11/12 02:32:05;;;;;;;5.87;3.63;;;5.30;99.90;;;;;;4224407;28;20439;-77
2023/11/12 02:34:07;;;;;;;6.00;3.77;;;5.20;99.90;;;;;;4218859;28;20494;-77
2023/11/12 02:36:10;;;;;;;4.77;3.27;;;5.30;99.90;;;;;;4219336;28;20469;-77
2023/11/12 02:38:10;;;;;;;5.97;3.77;;;5.20;99.90;;;;;;4219915;28;20441;-78
2023/11/12 02:40:14;;;;;;;5.60;3.57;;;5.30;99.90;;;;;;4217726;28;20511;-77
2023/11/12 02:42:17;;;;;;;7.87;3.53;;;5.20;99.90;;;;;;4220943;28;20238;-77
2023/11/12 02:44:19;;;;;;;6.57;3.50;;;5.40;99.90;;;;;;4222353;28;20441;-77
2023/11/12 02:46:21;;;;;;;7.47;3.73;;;5.20;99.90;;;;;;4217299;28;20543;-76
2023/11/12 02:48:25;;;;;;;7.33;3.83;;;5.30;99.90;;;;;;4217810;28;20497;-76
2023/11/12 02:50:30;;;;;;;8.40;3.67;;;5.30;99.90;;;;;;4213653;28;20940;-76
2023/11/12 02:52:33;;;;;;;8.03;3.47;;;5.20;99.90;;;;;;4213234;28;20457;-78
2023/11/12 02:54:36;;;;;;;6.97;3.70;;;5.20;99.90;;;;;;4215500;28;20556;-76
2023/11/12 02:56:40;;;;;;;7.93;3.83;;;5.20;99.90;;;;;;4215599;28;20435;-76
2023/11/12 02:58:42;;;;;;;8.87;3.77;;;5.20;99.90;;;;;;4218606;28;21200;-76
2023/11/12 03:00:44;;;;;;;6.20;3.60;;;5.20;99.90;;;;;;4216313;28;20449;-77
2023/11/12 03:02:47;;;;;;;6.83;3.70;;;5.20;99.90;;;;;;4224804;28;20486;-76
2023/11/12 03:04:50;;;;;;;9.90;3.90;;;5.20;99.90;;;;;;4215734;28;20548;-76
2023/11/12 03:06:52;;;;;;;7.90;3.60;;;5.20;99.90;;;;;;4223004;28;20458;-79
2023/11/12 03:08:54;;;;;;;7.43;3.37;;;5.20;99.90;;;;;;4222656;28;20450;-79
2023/11/12 03:10:56;;;;;;;6.97;4.20;;;5.20;99.90;;;;;;4223498;28;20464;-78
2023/11/12 03:13:00;;;;;;;8.30;4.20;;;5.20;99.90;;;;;;4221725;28;20458;-77
2023/11/12 03:15:01;;;;;;;5.97;3.93;;;5.20;99.90;;;;;;4218578;28;20979;-78
2023/11/12 03:17:03;;;;;;;5.37;3.80;;;5.20;99.90;;;;;;4223003;28;20445;-76
2023/11/12 03:19:06;;;;;;;5.57;3.97;;;5.20;99.90;;;;;;4217676;28;20704;-79
2023/11/12 03:21:10;;;;;;;8.53;4.77;;;5.10;99.90;;;;;;4222121;28;20482;-78
2023/11/12 03:23:12;;;;;;;11.20;4.10;;;5.20;99.90;;;;;;4219802;28;20453;-78
2023/11/12 03:25:14;;;;;;;8.70;4.33;;;5.20;99.90;;;;;;4223456;28;20518;-79
2023/11/12 03:27:16;;;;;;;7.07;4.33;;;5.20;99.90;;;;;;4224684;28;20452;-78
2023/11/12 03:29:19;;;;;;;6.33;3.80;;;5.20;99.90;;;;;;4217917;28;20525;-79
2023/11/12 03:31:21;;;;;;;9.67;4.33;;;5.50;99.90;;;;;;4222125;28;20453;-79
2023/11/12 03:33:22;;;;;;;6.80;3.80;;;5.20;99.90;;;;;;4219228;28;20950;-78
2023/11/12 03:35:24;;;;;;;7.67;3.90;;;5.20;99.90;;;;;;4222087;28;20501;-78
2023/11/12 03:37:25;;;;;;;7.53;4.03;;;5.20;99.90;;;;;;4223558;28;20229;-79
2023/11/12 03:39:27;;;;;;;6.77;3.77;;;5.20;99.90;;;;;;4224702;28;20507;-77
2023/11/12 03:41:29;;;;;;;5.63;4.23;;;5.20;99.90;;;;;;4224734;28;20223;-78
2023/11/12 03:43:31;;;;;;;12.43;4.37;;;5.20;99.90;;;;;;4225105;28;20437;-76
2023/11/12 03:45:34;;;;;;;7.17;4.50;;;5.20;99.90;;;;;;4221205;28;20557;-78
2023/11/12 03:47:35;;;;;;;6.50;3.87;;;5.20;99.90;;;;;;4221692;28;20510;-80
2023/11/12 03:49:39;;;;;;;5.70;3.67;;;5.20;99.90;;;;;;4222839;28;20887;-78
2023/11/12 03:51:41;;;;;;;5.90;3.67;;;5.20;99.90;;;;;;4224087;28;20677;-79
2023/11/12 03:53:43;;;;;;;6.63;3.63;;;5.20;99.90;;;;;;4220882;28;20531;-79
2023/11/12 03:55:44;;;;;;;5.60;3.60;;;5.20;99.90;;;;;;4221114;28;20521;-79
2023/11/12 03:57:46;;;;;;;5.50;3.60;;;5.30;99.90;;;;;;4222474;28;20437;-79
2023/11/12 03:59:51;;;;;;;6.53;3.83;;;5.30;99.90;;;;;;4222617;28;20703;-78
2023/11/12 04:01:54;;;;;;;5.07;3.50;;;5.30;99.90;;;;;;4222891;28;20509;-79
2023/11/12 04:03:56;;;;;;;5.53;3.50;;;5.30;99.90;;;;;;4218355;28;20446;-79
2023/11/12 04:05:57;;;;;;;6.83;3.93;;;5.30;99.90;;;;;;4215425;28;20467;-79
2023/11/12 04:07:59;;;;;;;5.93;3.50;;;5.30;99.90;;;;;;4219376;28;20490;-79
2023/11/12 04:10:04;;;;;;;6.00;3.47;;;5.30;99.90;;;;;;4219032;28;20455;-79
2023/11/12 04:12:07;;;;;;;7.37;3.50;;;5.40;99.90;;;;;;4217548;28;20441;-79
2023/11/12 04:14:10;;;;;;;5.13;3.47;;;5.30;99.90;;;;;;4220103;28;20445;-79
2023/11/12 04:16:12;;;;;;;4.80;3.30;;;5.30;99.90;;;;;;4224286;28;20466;-79
2023/11/12 04:18:15;;;;;;;5.50;3.40;;;5.30;99.90;;;;;;4223018;28;20445;-78
2023/11/12 04:20:27;;;;;;;7.50;3.50;;;5.30;99.90;;;;;;4217451;28;20466;-79
2023/11/12 04:22:30;;;;;;;6.93;3.50;;;5.30;99.90;;;;;;4218842;28;20568;-79
2023/11/12 04:24:32;;;;;;;4.80;3.13;;;5.30;99.90;;;;;;4223647;28;20440;-79
2023/11/12 04:26:34;;;;;;;6.83;3.47;;;5.30;99.90;;;;;;4220125;28;20969;-77
2023/11/12 04:28:36;;;;;;;6.53;3.27;;;5.30;99.90;;;;;;4220638;28;20437;-78
2023/11/12 04:30:38;;;;;;;7.90;3.97;;;5.30;99.90;;;;;;4218390;28;20469;-79
2023/11/12 04:32:44;;;;;;;6.27;3.87;;;5.70;99.90;;;;;;4218183;28;20487;-79
2023/11/12 04:34:50;;;;;;;6.33;3.57;;;5.40;99.90;;;;;;4221042;28;21212;-79
2023/11/12 04:36:52;;;;;;;4.80;3.63;;;5.40;99.90;;;;;;4222517;28;20968;-78
2023/11/12 04:38:57;;;;;;;5.63;3.60;;;5.30;99.90;;;;;;4220323;28;21051;-80
2023/11/12 04:40:59;;;;;;;8.20;4.00;;;5.30;99.90;;;;;;4218290;28;21437;-77
2023/11/12 04:43:02;;;;;;;5.60;3.63;;;5.30;99.90;;;;;;4220356;28;20484;-79
2023/11/12 04:45:04;;;;;;;8.10;4.10;;;5.30;99.90;;;;;;4224196;28;21072;-79
2023/11/12 04:47:07;;;;;;;5.47;3.77;;;5.30;99.90;;;;;;4221864;28;20446;-80
2023/11/12 04:49:07;;;;;;;6.13;3.37;;;5.30;99.90;;;;;;4221627;28;20453;-78
2023/11/12 04:51:11;;;;;;;5.97;3.53;;;5.30;99.90;;;;;;4220408;28;20438;-79
2023/11/12 04:53:12;;;;;;;4.97;3.50;;;5.30;99.90;;;;;;4220908;28;20213;-79
2023/11/12 04:55:14;;;;;;;10.30;4.00;;;5.30;99.90;;;;;;4218271;28;20477;-78
2023/11/12 04:57:16;;;;;;;8.63;4.10;;;5.30;99.90;;;;;;4216372;28;20445;-79
2023/11/12 04:59:18;;;;;;;5.13;3.47;;;5.30;99.90;;;;;;4221219;28;20452;-78
2023/11/12 05:01:20;;;;;;;5.57;3.67;;;5.30;99.90;;;;;;4219254;28;20458;-78
2023/11/12 05:03:22;;;;;;;5.73;3.63;;;5.60;99.90;;;;;;4216537;28;20489;-79
2023/11/12 05:05:23;;;;;;;9.97;4.40;;;5.30;99.90;;;;;;4223279;28;20466;-76
2023/11/12 05:07:27;;;;;;;4.60;3.70;;;5.40;99.90;;;;;;4224393;28;20518;-77
2023/11/12 05:09:29;;;;;;;6.13;3.70;;;5.30;99.90;;;;;;4227041;28;20452;-79
2023/11/12 05:11:31;;;;;;;5.00;3.50;;;5.30;99.90;;;;;;4226473;28;20476;-80
2023/11/12 05:13:33;;;;;;;4.37;3.50;;;5.30;99.90;;;;;;4222497;28;20474;-79
2023/11/12 05:15:35;;;;;;;7.97;3.77;;;5.40;99.90;;;;;;4219207;28;20485;-78
2023/11/12 05:17:37;;;;;;;5.23;3.70;;;5.60;99.90;;;;;;4222505;28;20438;-80
2023/11/12 05:19:39;;;;;;;7.63;4.10;;;5.30;99.90;;;;;;4221103;28;20547;-79
2023/11/12 05:21:44;;;;;;;8.27;4.13;;;5.40;99.90;;;;;;4222966;28;20447;-79
2023/11/12 05:23:48;;;;;;;6.17;4.13;;;5.40;99.90;;;;;;4221625;28;20478;-79
2023/11/12 05:25:51;;;;;;;5.63;3.93;;;5.40;99.90;;;;;;4223098;28;20471;-79
2023/11/12 05:27:53;;;;;;;6.20;4.20;;;5.30;99.90;;;;;;4227057;28;20442;-78
2023/11/12 05:29:54;;;;;;;5.60;4.03;;;5.30;99.90;;;;;;4223493;28;20980;-77
2023/11/12 05:31:58;;;;;;;7.93;4.30;;;5.30;99.90;;;;;;4224897;28;20458;-78
2023/11/12 05:34:00;;;;;;;7.00;4.43;;;5.30;99.90;;;;;;4226333;28;20443;-76
2023/11/12 05:36:02;;;;;;;7.73;4.57;;;5.20;99.90;;;;;;4229394;28;21020;-78
2023/11/12 05:38:08;;;;;;;7.80;4.70;;;5.20;99.90;;;;;;4227519;27;20447;-77
2023/11/12 05:40:12;;;;;;;10.07;4.50;;;5.20;99.90;;;;;;4228123;28;20988;-79
2023/11/12 05:42:14;;;;;;;7.03;4.80;;;5.20;99.90;;;;;;4224098;28;20665;-78
2023/11/12 05:44:16;;;;;;;8.07;4.23;;;5.20;99.90;;;;;;4228913;28;20453;-78
2023/11/12 05:46:18;;;;;;;6.37;4.40;;;5.20;99.90;;;;;;4227960;28;20910;-78
2023/11/12 05:48:20;;;;;;;6.53;4.30;;;5.30;99.90;;;;;;4228659;28;20467;-79
2023/11/12 05:50:23;;;;;;;6.33;4.53;;;5.20;99.90;;;;;;4233264;28;21066;-78
2023/11/12 05:52:25;;;;;;;7.03;4.70;;;5.20;99.90;;;;;;4221893;28;20451;-77
2023/11/12 05:54:27;;;;;;;7.17;4.57;;;5.30;99.90;;;;;;4224995;28;20438;-77
2023/11/12 05:56:32;;;;;;;5.93;4.23;;;5.20;99.90;;;;;;4223282;28;20489;-79
2023/11/12 05:58:34;;;;;;;6.90;4.40;;;5.20;99.90;;;;;;4222949;28;20467;-76
2023/11/12 06:00:36;;;;;;;6.07;4.27;;;5.20;99.90;;;;;;4224536;28;20445;-78
2023/11/12 06:02:39;;;;;;;7.30;4.63;;;5.20;99.90;;;;;;4228285;28;20504;-78
2023/11/12 06:04:41;;;;;;;10.60;6.53;;;5.20;99.90;;;;;;4229750;27;20517;-79
2023/11/12 06:06:44;;;;;;;10.47;5.80;;;5.20;99.90;;;;;;4223586;28;20454;-79
2023/11/12 06:08:46;;;;;;;8.00;4.83;;;5.30;99.90;;;;;;4227881;28;20895;-79
2023/11/12 06:10:48;;;;;;;7.57;4.57;;;5.20;99.90;;;;;;4226942;28;20903;-78
2023/11/12 06:12:51;;;;;;;7.57;4.57;;;5.30;99.90;;;;;;4224798;28;20853;-78
2023/11/12 06:14:53;;;;;;;6.53;4.30;;;5.20;99.90;;;;;;4226510;28;20867;-78
2023/11/12 06:16:54;;;;;;;11.03;4.90;;;5.20;99.90;;;;;;4226150;28;20453;-79
2023/11/12 06:18:55;;;;;;;13.47;5.30;;;5.20;99.90;;;;;;4219130;28;20473;-76
2023/11/12 06:20:58;;;;;;;9.83;5.00;;;5.20;99.90;;;;;;4220040;28;20456;-77
2023/11/12 06:22:59;;;;;;;9.37;4.57;;;5.20;99.90;;;;;;4222123;28;20223;-78
2023/11/12 06:25:01;;;;;;;6.47;4.53;;;5.20;99.90;;;;;;4221899;28;20470;-79
2023/11/12 06:27:03;;;;;;;8.37;4.53;;;5.20;99.90;;;;;;4224498;28;20469;-79
2023/11/12 06:29:06;;;;;;;6.53;4.63;;;5.20;99.90;;;;;;4226318;28;20480;-78
2023/11/12 06:31:08;;;;;;;8.43;4.50;;;5.10;99.90;;;;;;4219219;28;20465;-79
2023/11/12 06:33:10;;;;;;;5.67;3.97;;;5.10;99.90;;;;;;4220991;28;20450;-79
2023/11/12 06:35:11;;;;;;;7.10;3.90;;;5.10;99.90;;;;;;4219173;28;20474;-78
2023/11/12 06:37:13;;;;;;;7.07;4.37;;;5.00;99.90;;;;;;4227350;28;20450;-79
2023/11/12 06:39:15;;;;;;;8.53;4.23;;;5.00;99.90;;;;;;4220935;28;20461;-79
2023/11/12 06:41:16;;;;;;;8.27;4.90;;;4.70;99.90;;;;;;4219952;28;20513;-79
2023/11/12 06:43:18;;;;;;;6.33;3.93;;;4.90;99.90;;;;;;4225614;28;20901;-79
2023/11/12 06:45:22;;;;;;;6.80;4.70;;;4.90;99.90;;;;;;4222108;28;20227;-79
2023/11/12 06:47:24;;;;;;;7.57;4.30;;;5.20;99.90;;;;;;4224449;28;20472;-79
2023/11/12 06:49:24;;;;;;;7.37;4.23;;;4.90;99.90;;;;;;4222354;28;20921;-79
2023/11/12 06:51:27;;;;;;;8.20;4.03;;;4.90;99.90;;;;;;4221918;28;20437;-79
2023/11/12 06:53:29;;;;;;;6.00;4.10;;;4.90;99.90;;;;;;4220383;28;20200;-78
2023/11/12 06:55:32;;;;;;;5.77;4.07;;;4.70;99.90;;;;;;4221288;28;20472;-79
2023/11/12 06:57:34;;;;;;;6.20;4.10;;;5.10;99.90;;;;;;4219950;28;20451;-78
2023/11/12 06:59:36;;;;;;;6.50;4.10;;;4.80;99.90;;;;;;4219908;28;20537;-77
2023/11/12 07:01:41;;;;;;;5.40;3.67;;;4.80;99.90;;;;;;4224259;28;20455;-78
2023/11/12 07:03:43;;;;;;;8.30;4.03;;;4.80;99.90;;;;;;4221791;28;20484;-77
2023/11/12 07:05:45;;;;;;;5.90;4.10;;;4.80;99.90;;;;;;4223085;28;20469;-76
2023/11/12 07:07:46;;;;;;;6.50;3.77;;;4.80;99.90;;;;;;4222793;27;20450;-77
2023/11/12 07:09:49;;;;;;;5.50;3.77;;;4.80;99.90;;;;;;4221401;28;20986;-78
2023/11/12 07:11:50;;;;;;;8.10;4.03;;;5.20;99.90;;;;;;4222713;28;20506;-77
2023/11/12 07:13:51;;;;;;;6.23;3.83;;;4.80;99.90;;;;;;4222376;28;20462;-79
2023/11/12 07:15:54;;;;;;;7.53;3.73;;;4.80;99.90;;;;;;4223707;28;20288;-79
2023/11/12 07:18:02;;;;;;;7.03;3.50;;;4.80;99.90;;;;;;4220502;28;20537;-79
2023/11/12 07:20:06;;;;;;;7.40;3.80;;;4.90;99.90;;;;;;4222962;28;20870;-80
2023/11/12 07:22:08;;;;;;;6.67;3.63;;;4.90;99.90;;;;;;4221047;28;20463;-79
2023/11/12 07:24:11;;;;;;;6.63;3.77;;;4.90;99.90;;;;;;4225894;28;20552;-79
2023/11/12 07:26:13;;;;;;;11.73;6.53;;;5.40;99.90;;;;;;4221814;28;20480;-79
2023/11/12 07:28:15;;;;;;;14.77;5.70;;;5.00;99.90;;;;;;4218944;28;20456;-80
2023/11/12 07:30:17;;;;;;;6.07;3.77;;;5.00;99.90;;;;;;4221148;28;20452;-77
2023/11/12 07:32:20;;;;;;;5.30;3.33;;;5.70;99.90;;;;;;4217145;28;20453;-79
2023/11/12 07:34:24;;;;;;;5.57;3.50;;;5.10;99.90;;;;;;4223818;28;20427;-78
2023/11/12 07:36:26;;;;;;;4.83;3.37;;;5.10;99.90;;;;;;4216803;28;20488;-76
2023/11/12 07:38:28;;;;;;;7.70;3.30;;;5.10;99.90;;;;;;4223708;28;20453;-79
2023/11/12 07:40:30;;;;;;;5.97;3.33;;;5.20;99.90;;;;;;4217909;28;20456;-79
2023/11/12 07:42:32;;;;;;;8.10;3.50;;;4.90;99.90;;;;;;4220819;28;20450;-79
2023/11/12 07:44:34;;;;;;;7.13;3.50;;;5.30;99.90;;;;;;4215094;28;20483;-77
2023/11/12 07:46:39;;;;;;;6.93;3.33;;;5.40;99.90;;;;;;4221041;28;20458;-80
2023/11/12 07:48:41;;;;;;;7.30;3.97;;;5.30;99.90;;;;;;4220367;28;20445;-80
2023/11/12 07:50:45;;;;;;;6.07;3.80;;;5.40;99.90;;;;;;4221026;28;20436;-80
2023/11/12 07:52:49;;;;;;;7.40;4.00;;;5.40;99.90;;;;;;4222224;28;20465;-80
2023/11/12 07:54:50;;;;;;;6.73;3.80;;;5.50;99.90;;;;;;4219029;28;20483;-80
2023/11/12 07:56:52;;;;;;;6.50;4.17;;;5.40;99.90;;;;;;4215872;28;20476;-80
2023/11/12 07:58:54;;;;;;;6.87;4.20;;;5.50;99.90;;;;;;4220052;28;20442;-79
2023/11/12 08:00:56;;;;;;;7.30;3.80;;;5.80;99.90;;;;;;4218899;28;20447;-78
2023/11/12 08:02:58;;;;;;;6.50;3.80;;;5.50;99.90;;;;;;4221322;28;20443;-79
2023/11/12 08:05:03;;;;;;;6.90;4.10;;;5.50;99.90;;;;;;4224345;28;20477;-79
2023/11/12 08:07:10;;;;;;;6.27;4.07;;;5.60;99.90;;;;;;4222431;28;20439;-79
2023/11/12 08:09:12;;;;;;;5.70;3.90;;;5.60;99.90;;;;;;4219401;28;20463;-79
2023/11/12 08:11:14;;;;;;;6.67;4.83;;;5.70;99.90;;;;;;4219370;28;21151;-77
2023/11/12 08:13:16;;;;;;;7.17;3.87;;;5.70;99.90;;;;;;4222334;28;20989;-78
2023/11/12 08:15:18;;;;;;;6.90;4.40;;;5.70;99.90;;;;;;4220315;28;20466;-80
2023/11/12 08:17:20;;;;;;;6.93;4.33;;;5.80;99.90;;;;;;4226542;28;20445;-79
2023/11/12 08:19:22;;;;;;;7.63;4.10;;;5.80;99.90;;;;;;4219903;28;20758;-78
2023/11/12 08:21:24;;;;;;;6.13;4.43;;;5.90;99.90;;;;;;4220890;28;20457;-79
2023/11/12 08:23:27;;;;;;;6.37;3.93;;;5.90;99.90;;;;;;4221030;28;20559;-80
2023/11/12 08:25:29;;;;;;;5.30;3.93;;;5.90;99.90;;;;;;4220173;28;20462;-80
2023/11/12 08:27:30;;;;;;;5.50;3.70;;;6.00;99.90;;;;;;4220974;28;20447;-79
2023/11/12 08:29:32;;;;;;;8.17;4.13;;;6.00;99.90;;;;;;4219266;28;20201;-79
2023/11/12 08:31:34;;;;;;;8.93;4.50;;;6.00;99.90;;;;;;4220504;28;20689;-80
2023/11/12 08:33:36;;;;;;;9.13;4.90;;;6.10;99.90;;;;;;4220479;28;20483;-80
2023/11/12 08:35:39;;;;;;;7.43;4.30;;;6.10;99.90;;;;;;4221842;28;20289;-79
2023/11/12 08:37:41;;;;;;;9.63;4.60;;;6.20;99.90;;;;;;4218771;28;20224;-80
2023/11/12 08:39:47;;;;;;;7.73;4.03;;;6.20;99.90;;;;;;4221201;28;20300;-78
2023/11/12 08:41:49;;;;;;;7.00;4.33;;;6.30;99.90;;;;;;4220461;28;20213;-80
2023/11/12 08:43:51;;;;;;;6.43;4.30;;;6.40;99.90;;;;;;4216996;28;20228;-78
2023/11/12 08:45:53;;;;;;;6.40;4.07;;;6.40;99.90;;;;;;4215333;28;20282;-79
2023/11/12 08:47:55;;;;;;;6.23;3.87;;;6.40;99.90;;;;;;4231763;28;20597;-80
2023/11/12 08:49:58;;;;;;;9.70;4.20;;;6.50;99.90;;;;;;4220321;28;20812;-79
2023/11/12 08:52:00;;;;;;;7.83;4.20;;;6.50;99.90;;;;;;4222073;28;20442;-77
2023/11/12 08:54:02;;;;;;;7.87;3.70;;;6.60;99.90;;;;;;4218176;28;20206;-76
2023/11/12 08:56:05;;;;;;;5.90;3.63;;;6.50;99.90;;;;;;4215407;28;20220;-76
2023/11/12 08:58:08;;;;;;;9.03;5.07;;;6.60;99.90;;;;;;4216756;28;20238;-77
2023/11/12 09:00:11;;;;;;;5.07;3.73;;;6.60;99.90;;;;;;4220928;28;20211;-77
2023/11/12 09:02:13;;;;;;;8.67;4.20;;;6.60;99.90;;;;;;4213898;28;20240;-77
2023/11/12 09:04:15;;;;;;;9.67;4.47;;;6.70;99.90;;;;;;4219287;28;20221;-80
2023/11/12 09:06:16;;;;;;;8.57;4.47;;;6.70;99.90;;;;;;4222516;28;20228;-80
2023/11/12 09:08:18;;;;;;;5.37;3.50;;;6.80;99.90;;;;;;4224207;28;20208;-79
2023/11/12 09:10:20;;;;;;;5.80;3.73;;;6.80;99.90;;;;;;4221753;28;20283;-78
2023/11/12 09:12:23;;;;;;;5.37;3.80;;;6.80;99.90;;;;;;4223288;28;20200;-78
2023/11/12 09:14:26;;;;;;;7.23;3.73;;;6.90;99.90;;;;;;4217417;28;20224;-80
2023/11/12 09:16:28;;;;;;;5.17;3.27;;;6.90;99.90;;;;;;4222752;28;20303;-80
2023/11/12 09:18:32;;;;;;;6.70;3.70;;;6.90;99.90;;;;;;4219585;28;20205;-80
2023/11/12 09:20:33;;;;;;;7.50;3.90;;;6.90;99.90;;;;;;4220826;28;20276;-80
2023/11/12 09:22:35;;;;;;;7.37;4.00;;;7.00;99.90;;;;;;4222204;28;20209;-79
2023/11/12 09:24:37;;;;;;;6.87;4.10;;;7.00;99.90;;;;;;4219891;28;20225;-80
2023/11/12 09:26:39;;;;;;;5.33;3.20;;;7.10;99.90;;;;;;4221413;28;20254;-79
2023/11/12 09:28:43;;;;;;;8.30;4.10;;;7.20;99.90;;;;;;4217957;28;20208;-80
2023/11/12 09:30:45;;;;;;;9.73;4.30;;;7.20;99.90;;;;;;4223706;28;20213;-79
2023/11/12 09:32:47;;;;;;;6.53;3.37;;;7.20;99.90;;;;;;4217571;28;20209;-80
2023/11/12 09:34:49;;;;;;;5.63;3.30;;;7.30;99.90;;;;;;4220375;28;20282;-76
2023/11/12 09:36:51;;;;;;;4.37;3.40;;;7.30;99.90;;;;;;4221032;28;20201;-80
2023/11/12 09:38:53;;;;;;;7.77;3.40;;;7.30;99.90;;;;;;4221544;28;20216;-79
2023/11/12 09:40:59;;;;;;;6.00;3.43;;;7.40;99.90;;;;;;4221000;28;20208;-80
2023/11/12 09:43:02;;;;;;;5.53;2.77;;;7.30;99.90;;;;;;4220625;28;20246;-79
2023/11/12 09:45:08;;;;;;;5.87;2.90;;;7.40;99.90;;;;;;4219351;28;20233;-79
2023/11/12 09:47:21;;;;;;;4.87;3.27;;;7.40;99.90;;;;;;4223356;28;20209;-79
2023/11/12 09:49:24;;;;;;;5.40;3.37;;;7.40;99.90;;;;;;4221094;28;20197;-80
2023/11/12 09:51:26;;;;;;;4.80;2.80;;;7.40;99.90;;;;;;4222587;28;20231;-79
2023/11/12 09:53:29;;;;;;;7.13;2.97;;;7.50;99.90;;;;;;4226146;28;20204;-78
2023/11/12 09:55:31;;;;;;;3.97;2.90;;;7.50;99.90;;;;;;4222514;28;20247;-80
2023/11/12 09:57:33;;;;;;;7.70;3.23;;;7.50;99.90;;;;;;4222164;28;20201;-78
2023/11/12 09:59:36;;;;;;;4.67;2.90;;;7.50;99.90;;;;;;4228100;28;20204;-78
2023/11/12 10:01:39;;;;;;;7.70;3.43;;;7.50;99.90;;;;;;4232559;28;20193;-77
2023/11/12 10:03:48;;;;;;;5.60;3.60;;;7.60;99.90;;;;;;4229037;28;20217;-79
2023/11/12 10:05:50;;;;;;;5.23;3.10;;;7.60;99.90;;;;;;4226371;28;20228;-79
2023/11/12 10:07:53;;;;;;;4.03;3.00;;;7.60;99.90;;;;;;4222520;28;20715;-79
2023/11/12 10:09:55;;;;;;;5.57;3.30;;;7.60;99.90;;;;;;4224736;28;20884;-79
2023/11/12 10:12:04;;;;;;;5.37;3.20;;;7.70;99.90;;;;;;4224084;28;20200;-80
2023/11/12 10:14:15;;;;;;;9.47;3.83;;;7.70;99.90;;;;;;4221099;28;20201;-78
2023/11/12 10:16:29;;;;;;;6.03;3.80;;;7.70;99.90;;;;;;4221580;28;20537;-78
2023/11/12 10:18:32;;;;;;;6.27;4.17;;;7.70;99.90;;;;;;4221349;27;20264;-79
2023/11/12 10:20:39;;;;;;;10.50;4.50;;;7.80;99.90;;;;;;4222507;28;20259;-75
2023/11/12 10:22:40;;;;;;;8.23;4.30;;;7.90;99.90;;;;;;4219962;28;20209;-75
2023/11/12 10:24:44;;;;;;;8.97;4.07;;;7.90;99.90;;;;;;4223329;28;20704;-75
2023/11/12 10:26:46;;;;;;;7.80;3.90;;;7.90;99.90;;;;;;4218884;28;20213;-76
2023/11/12 10:28:48;;;;;;;8.83;3.80;;;7.90;99.90;;;;;;4218699;28;20670;-77
2023/11/12 10:30:54;;;;;;;7.03;3.93;;;8.00;99.90;;;;;;4220030;28;20290;-78
2023/11/12 10:32:58;;;;;;;5.30;3.50;;;8.10;99.90;;;;;;4218755;28;20221;-77
2023/11/12 10:35:02;;;;;;;7.70;3.90;;;8.10;99.90;;;;;;4216806;28;20217;-76
2023/11/12 10:37:08;;;;;;;8.97;4.70;;;8.20;99.90;;;;;;4220756;28;20584;-78
2023/11/12 10:39:14;;;;;;;8.30;4.80;;;8.20;99.90;;;;;;4218830;28;20233;-75
2023/11/12 10:41:16;;;;;;;8.60;3.83;;;8.30;99.90;;;;;;4219995;28;20213;-76
2023/11/12 10:43:18;;;;;;;8.77;3.97;;;8.30;99.90;;;;;;4218310;28;20242;-79
2023/11/12 10:45:20;;;;;;;10.33;5.93;;;8.30;99.90;;;;;;4221153;28;20222;-75
2023/11/12 10:47:24;;;;;;;9.93;4.17;;;8.40;99.90;;;;;;4220809;28;20289;-79